sensor_id;sensor_type;location;lat;lon;timestamp;pressure;altitude;pressure_sealevel;temperature;humidity
14790;BME280;7486;51.010;10.366;2023-04-09T00:01:07;99207.88;;;4.93;70.87
14790;BME280;7486;51.010;10.366;2023-04-09T00:03:53;99206.09;;;4.84;71.44
14790;BME280;7486;51.010;10.366;2023-04-09T00:06:38;99199.63;;;4.78;71.04
14790;BME280;7486;51.010;10.366;2023-04-09T00:09:24;99196.81;;;4.89;71.30
14790;BME280;7486;51.010;10.366;2023-04-09T00:12:09;99195.84;;;4.90;71.45
14790;BME280;7486;51.010;10.366;2023-04-09T00:14:55;99192.06;;;4.75;72.02
14790;BME280;7486;51.010;10.366;2023-04-09T00:17:40;99184.31;;;4.74;71.63
14790;BME280;7486;51.010;10.366;2023-04-09T00:20:26;99186.13;;;4.36;73.26
14790;BME280;7486;51.010;10.366;2023-04-09T00:23:11;99194.31;;;4.60;72.75
14790;BME280;7486;51.010;10.366;2023-04-09T00:25:57;98958.81;;;3.26;72.22
14790;BME280;7486;51.010;10.366;2023-04-09T00:28:42;99198.31;;;4.92;71.03
14790;BME280;7486;51.010;10.366;2023-04-09T00:31:28;99187.81;;;4.64;71.32
14790;BME280;7486;51.010;10.366;2023-04-09T00:34:13;99197.44;;;4.74;72.27
14790;BME280;7486;51.010;10.366;2023-04-09T00:36:58;99185.19;;;4.92;71.20
14790;BME280;7486;51.010;10.366;2023-04-09T00:39:44;99190.63;;;5.08;70.99
14790;BME280;7486;51.010;10.366;2023-04-09T00:42:31;99192.72;;;4.77;71.39
14790;BME280;7486;51.010;10.366;2023-04-09T00:45:17;99187.41;;;4.87;72.05
14790;BME280;7486;51.010;10.366;2023-04-09T00:48:02;99188.97;;;5.07;70.98
14790;BME280;7486;51.010;10.366;2023-04-09T00:50:47;99191.72;;;5.15;70.73
14790;BME280;7486;51.010;10.366;2023-04-09T00:53:33;99180.47;;;5.23;70.01
14790;BME280;7486;51.010;10.366;2023-04-09T00:56:20;99186.25;;;5.26;69.81
14790;BME280;7486;51.010;10.366;2023-04-09T00:59:06;99185.00;;;5.30;70.04
14790;BME280;7486;51.010;10.366;2023-04-09T01:01:52;99184.53;;;5.35;69.29
14790;BME280;7486;51.010;10.366;2023-04-09T01:04:39;99190.03;;;4.96;70.93
14790;BME280;7486;51.010;10.366;2023-04-09T01:07:41;99182.41;;;4.66;72.35
14790;BME280;7486;51.010;10.366;2023-04-09T01:10:46;99177.66;;;4.42;72.88
14790;BME280;7486;51.010;10.366;2023-04-09T01:13:53;99197.53;;;4.54;73.51
14790;BME280;7486;51.010;10.366;2023-04-09T01:16:41;99186.75;;;4.57;72.67
14790;BME280;7486;51.010;10.366;2023-04-09T01:19:50;99192.06;;;4.29;73.51
14790;BME280;7486;51.010;10.366;2023-04-09T01:29:06;99192.06;;;4.38;73.81
14790;BME280;7486;51.010;10.366;2023-04-09T01:31:52;99188.94;;;4.62;72.86
14790;BME280;7486;51.010;10.366;2023-04-09T01:34:40;99196.31;;;4.76;71.89
14790;BME280;7486;51.010;10.366;2023-04-09T01:37:26;99199.81;;;4.67;72.50
14790;BME280;7486;51.010;10.366;2023-04-09T01:40:11;99192.38;;;4.62;72.80
14790;BME280;7486;51.010;10.366;2023-04-09T01:42:57;99191.94;;;4.67;72.59
14790;BME280;7486;51.010;10.366;2023-04-09T01:45:43;99193.13;;;4.55;73.29
14790;BME280;7486;51.010;10.366;2023-04-09T01:48:30;99196.06;;;4.79;72.61
14790;BME280;7486;51.010;10.366;2023-04-09T01:51:17;99196.53;;;4.92;71.59
14790;BME280;7486;51.010;10.366;2023-04-09T01:54:03;99192.78;;;4.95;71.78
14790;BME280;7486;51.010;10.366;2023-04-09T01:56:48;99194.97;;;4.99;71.63
14790;BME280;7486;51.010;10.366;2023-04-09T01:59:34;99188.44;;;5.03;71.14
14790;BME280;7486;51.010;10.366;2023-04-09T02:02:27;99195.88;;;5.08;71.18
14790;BME280;7486;51.010;10.366;2023-04-09T02:05:17;99193.97;;;5.00;70.75
14790;BME280;7486;51.010;10.366;2023-04-09T02:08:06;99187.63;;;5.03;71.08
14790;BME280;7486;51.010;10.366;2023-04-09T02:10:54;99185.72;;;4.95;70.95
14790;BME280;7486;51.010;10.366;2023-04-09T02:13:42;99184.59;;;4.98;71.20
14790;BME280;7486;51.010;10.366;2023-04-09T02:16:30;99141.66;;;4.72;71.32
14790;BME280;7486;51.010;10.366;2023-04-09T02:19:15;99197.31;;;5.02;70.65
14790;BME280;7486;51.010;10.366;2023-04-09T02:22:03;99196.47;;;5.02;70.91
14790;BME280;7486;51.010;10.366;2023-04-09T02:24:49;99182.75;;;5.08;70.82
14790;BME280;7486;51.010;10.366;2023-04-09T02:27:34;99191.31;;;5.10;71.26
14790;BME280;7486;51.010;10.366;2023-04-09T02:30:20;99185.34;;;5.17;71.19
14790;BME280;7486;51.010;10.366;2023-04-09T02:33:06;99187.97;;;5.17;70.74
14790;BME280;7486;51.010;10.366;2023-04-09T02:35:51;99188.38;;;5.23;70.74
14790;BME280;7486;51.010;10.366;2023-04-09T02:38:40;99151.66;;;5.03;70.65
14790;BME280;7486;51.010;10.366;2023-04-09T02:41:26;99181.44;;;5.22;70.28
14790;BME280;7486;51.010;10.366;2023-04-09T02:44:11;99157.22;;;5.00;70.95
14790;BME280;7486;51.010;10.366;2023-04-09T02:46:57;99185.22;;;5.19;70.83
14790;BME280;7486;51.010;10.366;2023-04-09T02:49:43;99184.41;;;5.09;71.43
14790;BME280;7486;51.010;10.366;2023-04-09T02:52:28;99138.72;;;4.75;72.02
14790;BME280;7486;51.010;10.366;2023-04-09T02:55:14;99181.31;;;4.96;72.36
14790;BME280;7486;51.010;10.366;2023-04-09T02:57:59;99175.59;;;4.83;73.15
14790;BME280;7486;51.010;10.366;2023-04-09T03:00:45;99180.47;;;4.68;74.01
14790;BME280;7486;51.010;10.366;2023-04-09T03:03:30;99098.56;;;4.10;74.36
14790;BME280;7486;51.010;10.366;2023-04-09T03:06:16;99172.69;;;4.49;75.40
14790;BME280;7486;51.010;10.366;2023-04-09T03:09:01;99183.72;;;4.52;75.57
14790;BME280;7486;51.010;10.366;2023-04-09T03:11:47;99172.94;;;4.55;75.76
14790;BME280;7486;51.010;10.366;2023-04-09T03:14:32;99170.69;;;4.60;75.76
14790;BME280;7486;51.010;10.366;2023-04-09T03:17:19;99148.97;;;4.41;76.33
14790;BME280;7486;51.010;10.366;2023-04-09T03:20:08;99165.50;;;4.51;76.17
14790;BME280;7486;51.010;10.366;2023-04-09T03:22:55;99161.13;;;4.32;77.45
14790;BME280;7486;51.010;10.366;2023-04-09T03:26:03;99166.16;;;4.16;78.05
14790;BME280;7486;51.010;10.366;2023-04-09T03:28:55;99148.59;;;3.80;79.70
14790;BME280;7486;51.010;10.366;2023-04-09T03:31:40;99172.56;;;3.85;80.08
14790;BME280;7486;51.010;10.366;2023-04-09T03:34:26;99176.72;;;3.78;81.03
14790;BME280;7486;51.010;10.366;2023-04-09T03:37:14;99180.03;;;3.70;82.18
14790;BME280;7486;51.010;10.366;2023-04-09T03:39:59;99178.13;;;3.62;82.63
14790;BME280;7486;51.010;10.366;2023-04-09T03:42:47;99154.41;;;3.54;83.20
14790;BME280;7486;51.010;10.366;2023-04-09T03:45:34;99177.00;;;3.75;82.79
14790;BME280;7486;51.010;10.366;2023-04-09T03:48:32;99169.13;;;3.75;82.90
14790;BME280;7486;51.010;10.366;2023-04-09T03:51:18;99172.63;;;3.56;83.36
14790;BME280;7486;51.010;10.366;2023-04-09T03:54:08;99172.63;;;3.56;83.72
14790;BME280;7486;51.010;10.366;2023-04-09T03:56:56;99165.16;;;3.42;84.36
14790;BME280;7486;51.010;10.366;2023-04-09T03:59:42;99182.50;;;3.43;84.50
14790;BME280;7486;51.010;10.366;2023-04-09T04:02:28;99041.91;;;2.67;84.80
14790;BME280;7486;51.010;10.366;2023-04-09T04:05:18;99176.47;;;3.61;83.81
14790;BME280;7486;51.010;10.366;2023-04-09T04:08:07;99172.31;;;3.69;83.51
14790;BME280;7486;51.010;10.366;2023-04-09T04:10:52;99175.09;;;3.77;82.61
14790;BME280;7486;51.010;10.366;2023-04-09T04:13:38;99179.63;;;3.75;83.02
14790;BME280;7486;51.010;10.366;2023-04-09T04:16:26;99180.31;;;3.57;83.87
14790;BME280;7486;51.010;10.366;2023-04-09T04:19:13;99185.72;;;3.56;83.72
14790;BME280;7486;51.010;10.366;2023-04-09T04:22:03;99190.91;;;3.46;84.71
14790;BME280;7486;51.010;10.366;2023-04-09T04:24:51;99189.13;;;3.56;84.78
14790;BME280;7486;51.010;10.366;2023-04-09T04:27:42;99190.13;;;3.65;84.40
14790;BME280;7486;51.010;10.366;2023-04-09T04:30:28;99191.88;;;3.74;83.85
14790;BME280;7486;51.010;10.366;2023-04-09T04:33:20;99198.91;;;3.74;82.47
14790;BME280;7486;51.010;10.366;2023-04-09T04:36:12;99180.03;;;3.60;83.52
14790;BME280;7486;51.010;10.366;2023-04-09T04:39:09;99195.50;;;3.73;83.25
14790;BME280;7486;51.010;10.366;2023-04-09T04:42:09;99201.28;;;3.77;82.91
14790;BME280;7486;51.010;10.366;2023-04-09T04:44:54;99176.19;;;3.45;83.46
14790;BME280;7486;51.010;10.366;2023-04-09T04:47:52;99205.66;;;3.28;85.28
14790;BME280;7486;51.010;10.366;2023-04-09T04:50:38;99215.69;;;3.23;85.51
14790;BME280;7486;51.010;10.366;2023-04-09T04:53:26;99202.97;;;3.18;85.40
14790;BME280;7486;51.010;10.366;2023-04-09T04:56:15;99200.63;;;3.06;86.42
14790;BME280;7486;51.010;10.366;2023-04-09T04:59:14;99205.03;;;3.15;86.42
14790;BME280;7486;51.010;10.366;2023-04-09T05:02:14;99210.59;;;3.22;85.68
14790;BME280;7486;51.010;10.366;2023-04-09T05:05:23;99201.97;;;2.91;86.80
14790;BME280;7486;51.010;10.366;2023-04-09T05:08:11;99204.41;;;2.83;87.04
14790;BME280;7486;51.010;10.366;2023-04-09T05:10:57;99208.09;;;2.71;87.63
14790;BME280;7486;51.010;10.366;2023-04-09T05:13:50;99207.84;;;2.74;88.44
14790;BME280;7486;51.010;10.366;2023-04-09T05:16:36;99214.31;;;2.79;87.83
14790;BME280;7486;51.010;10.366;2023-04-09T05:19:23;99215.31;;;2.88;87.60
14790;BME280;7486;51.010;10.366;2023-04-09T05:22:14;99209.63;;;2.73;87.45
14790;BME280;7486;51.010;10.366;2023-04-09T05:24:59;99207.59;;;2.86;87.83
14790;BME280;7486;51.010;10.366;2023-04-09T05:27:44;99215.19;;;2.99;87.24
14790;BME280;7486;51.010;10.366;2023-04-09T05:30:30;99221.84;;;3.12;86.56
14790;BME280;7486;51.010;10.366;2023-04-09T05:33:19;99227.88;;;2.94;87.16
14790;BME280;7486;51.010;10.366;2023-04-09T05:36:05;99223.59;;;2.93;87.40
14790;BME280;7486;51.010;10.366;2023-04-09T05:38:52;99217.50;;;2.83;87.04
14790;BME280;7486;51.010;10.366;2023-04-09T05:41:39;99219.16;;;2.84;87.33
14790;BME280;7486;51.010;10.366;2023-04-09T05:44:48;99227.34;;;3.00;86.31
14790;BME280;7486;51.010;10.366;2023-04-09T05:47:37;99235.31;;;2.98;86.36
14790;BME280;7486;51.010;10.366;2023-04-09T05:50:31;99225.25;;;2.94;86.30
14790;BME280;7486;51.010;10.366;2023-04-09T05:53:32;99230.03;;;2.79;86.77
14790;BME280;7486;51.010;10.366;2023-04-09T05:56:18;99226.47;;;2.80;86.92
14790;BME280;7486;51.010;10.366;2023-04-09T05:59:09;99213.09;;;2.83;86.18
14790;BME280;7486;51.010;10.366;2023-04-09T06:01:54;99230.94;;;3.08;85.63
14790;BME280;7486;51.010;10.366;2023-04-09T06:04:40;99225.44;;;3.11;85.35
14790;BME280;7486;51.010;10.366;2023-04-09T06:07:26;99226.25;;;3.12;85.19
14790;BME280;7486;51.010;10.366;2023-04-09T06:10:11;99230.38;;;3.05;85.28
14790;BME280;7486;51.010;10.366;2023-04-09T06:12:56;99206.13;;;3.03;84.60
14790;BME280;7486;51.010;10.366;2023-04-09T06:15:42;99232.88;;;3.16;84.61
14790;BME280;7486;51.010;10.366;2023-04-09T06:18:27;99211.72;;;2.89;84.88
14790;BME280;7486;51.010;10.366;2023-04-09T06:21:13;99232.31;;;3.03;85.34
14790;BME280;7486;51.010;10.366;2023-04-09T06:23:58;99227.09;;;3.12;84.83
14790;BME280;7486;51.010;10.366;2023-04-09T06:26:43;99228.75;;;3.13;84.79
14790;BME280;7486;51.010;10.366;2023-04-09T06:29:29;99218.41;;;3.12;84.74
14790;BME280;7486;51.010;10.366;2023-04-09T06:32:14;99144.50;;;2.70;84.39
14790;BME280;7486;51.010;10.366;2023-04-09T06:34:59;99235.03;;;3.41;83.40
14790;BME280;7486;51.010;10.366;2023-04-09T06:37:44;99242.69;;;3.24;83.74
14790;BME280;7486;51.010;10.366;2023-04-09T06:40:30;99216.16;;;3.28;83.34
14790;BME280;7486;51.010;10.366;2023-04-09T06:43:16;99232.97;;;3.35;83.82
14790;BME280;7486;51.010;10.366;2023-04-09T06:46:08;99233.09;;;3.43;83.69
14790;BME280;7486;51.010;10.366;2023-04-09T06:48:53;99236.56;;;3.44;84.64
14790;BME280;7486;51.010;10.366;2023-04-09T06:51:39;99233.00;;;3.54;83.79
14790;BME280;7486;51.010;10.366;2023-04-09T06:54:24;99240.00;;;3.54;84.67
14790;BME280;7486;51.010;10.366;2023-04-09T06:57:09;99240.56;;;3.38;84.68
14790;BME280;7486;51.010;10.366;2023-04-09T06:59:55;99240.06;;;3.14;86.29
14790;BME280;7486;51.010;10.366;2023-04-09T07:02:40;99239.72;;;3.38;86.03
14790;BME280;7486;51.010;10.366;2023-04-09T07:05:26;99238.78;;;3.39;87.38
14790;BME280;7486;51.010;10.366;2023-04-09T07:08:11;99237.28;;;3.75;84.53
14790;BME280;7486;51.010;10.366;2023-04-09T07:10:57;99239.06;;;3.84;84.16
14790;BME280;7486;51.010;10.366;2023-04-09T07:13:43;99244.59;;;4.00;81.87
14790;BME280;7486;51.010;10.366;2023-04-09T07:16:28;99236.56;;;4.21;79.36
14790;BME280;7486;51.010;10.366;2023-04-09T07:19:13;99245.34;;;4.29;81.02
14790;BME280;7486;51.010;10.366;2023-04-09T07:21:58;99247.00;;;4.40;79.50
14790;BME280;7486;51.010;10.366;2023-04-09T07:25:08;99246.78;;;4.14;77.42
14790;BME280;7486;51.010;10.366;2023-04-09T07:27:54;99249.72;;;4.57;76.53
14790;BME280;7486;51.010;10.366;2023-04-09T07:30:39;99248.22;;;4.55;74.86
14790;BME280;7486;51.010;10.366;2023-04-09T07:33:25;99250.59;;;4.48;72.81
14790;BME280;7486;51.010;10.366;2023-04-09T07:36:10;99223.28;;;4.22;75.79
14790;BME280;7486;51.010;10.366;2023-04-09T07:38:56;99257.38;;;4.78;72.35
14790;BME280;7486;51.010;10.366;2023-04-09T07:41:41;99249.75;;;4.85;76.33
14790;BME280;7486;51.010;10.366;2023-04-09T07:44:26;99250.03;;;5.18;72.96
14790;BME280;7486;51.010;10.366;2023-04-09T07:47:12;99248.13;;;5.38;71.67
14790;BME280;7486;51.010;10.366;2023-04-09T07:49:57;99256.19;;;5.54;68.81
14790;BME280;7486;51.010;10.366;2023-04-09T07:52:43;99248.38;;;5.62;67.59
14790;BME280;7486;51.010;10.366;2023-04-09T07:55:28;99253.84;;;5.51;67.77
14790;BME280;7486;51.010;10.366;2023-04-09T07:58:13;99244.47;;;5.66;69.09
14790;BME280;7486;51.010;10.366;2023-04-09T08:00:59;99225.75;;;5.52;68.94
14790;BME280;7486;51.010;10.366;2023-04-09T08:03:44;99239.28;;;5.57;67.68
14790;BME280;7486;51.010;10.366;2023-04-09T08:06:31;99242.81;;;5.65;67.01
14790;BME280;7486;51.010;10.366;2023-04-09T08:09:17;99245.13;;;6.04;63.61
14790;BME280;7486;51.010;10.366;2023-04-09T08:12:02;99244.22;;;6.13;63.41
14790;BME280;7486;51.010;10.366;2023-04-09T08:14:48;99254.03;;;6.72;62.86
14790;BME280;7486;51.010;10.366;2023-04-09T08:17:33;99254.19;;;7.12;62.21
14790;BME280;7486;51.010;10.366;2023-04-09T08:20:19;99254.75;;;7.24;59.76
14790;BME280;7486;51.010;10.366;2023-04-09T08:23:04;99255.06;;;7.21;58.88
14790;BME280;7486;51.010;10.366;2023-04-09T08:25:49;99258.31;;;7.07;59.12
14790;BME280;7486;51.010;10.366;2023-04-09T08:28:35;99256.84;;;7.12;60.33
14790;BME280;7486;51.010;10.366;2023-04-09T08:31:20;99257.72;;;7.21;60.32
14790;BME280;7486;51.010;10.366;2023-04-09T08:34:06;99231.66;;;6.50;60.96
14790;BME280;7486;51.010;10.366;2023-04-09T08:36:51;99260.25;;;6.45;62.64
14790;BME280;7486;51.010;10.366;2023-04-09T08:39:37;99252.63;;;6.60;63.11
14790;BME280;7486;51.010;10.366;2023-04-09T08:42:23;99253.38;;;6.78;64.04
14790;BME280;7486;51.010;10.366;2023-04-09T08:45:10;99254.72;;;7.16;61.63
14790;BME280;7486;51.010;10.366;2023-04-09T08:47:55;99255.16;;;7.45;61.10
14790;BME280;7486;51.010;10.366;2023-04-09T08:50:41;99258.94;;;7.43;62.22
14790;BME280;7486;51.010;10.366;2023-04-09T08:53:26;99263.75;;;7.55;62.08
14790;BME280;7486;51.010;10.366;2023-04-09T08:56:13;99253.59;;;7.18;61.02
14790;BME280;7486;51.010;10.366;2023-04-09T08:58:58;99192.81;;;6.78;59.42
14790;BME280;7486;51.010;10.366;2023-04-09T09:01:44;99256.84;;;7.70;60.31
14790;BME280;7486;51.010;10.366;2023-04-09T09:04:43;99253.75;;;7.99;59.32
14790;BME280;7486;51.010;10.366;2023-04-09T09:07:30;99257.50;;;7.64;59.29
14790;BME280;7486;51.010;10.366;2023-04-09T09:10:15;99250.78;;;7.86;59.36
14790;BME280;7486;51.010;10.366;2023-04-09T09:13:15;99251.63;;;8.03;57.69
14790;BME280;7486;51.010;10.366;2023-04-09T09:16:13;99236.41;;;7.64;58.31
14790;BME280;7486;51.010;10.366;2023-04-09T09:19:00;99197.69;;;7.73;58.19
14790;BME280;7486;51.010;10.366;2023-04-09T09:21:55;99218.13;;;7.95;56.99
14790;BME280;7486;51.010;10.366;2023-04-09T09:24:50;99253.94;;;7.98;59.10
14790;BME280;7486;51.010;10.366;2023-04-09T09:27:37;99238.47;;;8.11;56.71
14790;BME280;7486;51.010;10.366;2023-04-09T09:30:26;99229.53;;;8.28;54.92
14790;BME280;7486;51.010;10.366;2023-04-09T09:33:12;99210.56;;;7.76;55.91
14790;BME280;7486;51.010;10.366;2023-04-09T09:35:57;99237.75;;;7.77;56.60
14790;BME280;7486;51.010;10.366;2023-04-09T09:38:53;99240.41;;;8.01;59.61
14790;BME280;7486;51.010;10.366;2023-04-09T09:41:40;99246.38;;;8.27;55.09
14790;BME280;7486;51.010;10.366;2023-04-09T09:44:31;99241.72;;;8.45;54.31
14790;BME280;7486;51.010;10.366;2023-04-09T09:47:17;99239.72;;;8.39;54.00
14790;BME280;7486;51.010;10.366;2023-04-09T09:50:03;99230.94;;;8.71;50.28
14790;BME280;7486;51.010;10.366;2023-04-09T09:52:49;99228.44;;;9.25;49.74
14790;BME280;7486;51.010;10.366;2023-04-09T09:55:39;99214.28;;;9.09;50.05
14790;BME280;7486;51.010;10.366;2023-04-09T09:58:31;99233.69;;;8.86;52.63
14790;BME280;7486;51.010;10.366;2023-04-09T10:01:20;99233.63;;;8.55;54.32
14790;BME280;7486;51.010;10.366;2023-04-09T10:04:12;99229.19;;;9.02;54.55
14790;BME280;7486;51.010;10.366;2023-04-09T10:07:00;99227.94;;;8.82;54.77
14790;BME280;7486;51.010;10.366;2023-04-09T10:09:49;99234.78;;;9.46;54.04
14790;BME280;7486;51.010;10.366;2023-04-09T10:12:36;99198.59;;;9.08;51.35
14790;BME280;7486;51.010;10.366;2023-04-09T10:15:22;99219.09;;;9.45;50.18
14790;BME280;7486;51.010;10.366;2023-04-09T10:18:07;99224.03;;;9.09;49.42
14790;BME280;7486;51.010;10.366;2023-04-09T10:20:56;99216.03;;;8.86;50.78
14790;BME280;7486;51.010;10.366;2023-04-09T10:23:44;99185.59;;;8.98;50.45
14790;BME280;7486;51.010;10.366;2023-04-09T10:26:31;99217.44;;;9.66;51.51
14790;BME280;7486;51.010;10.366;2023-04-09T10:29:26;99217.03;;;9.78;49.26
14790;BME280;7486;51.010;10.366;2023-04-09T10:32:17;99206.28;;;9.79;52.13
14790;BME280;7486;51.010;10.366;2023-04-09T10:35:03;99216.72;;;9.50;49.78
14790;BME280;7486;51.010;10.366;2023-04-09T10:37:48;99222.13;;;9.34;51.04
14790;BME280;7486;51.010;10.366;2023-04-09T10:40:35;99137.06;;;9.22;48.66
14790;BME280;7486;51.010;10.366;2023-04-09T10:43:24;99205.75;;;9.84;48.84
14790;BME280;7486;51.010;10.366;2023-04-09T10:46:27;99184.25;;;9.41;50.86
14790;BME280;7486;51.010;10.366;2023-04-09T10:49:17;99203.91;;;10.07;50.70
14790;BME280;7486;51.010;10.366;2023-04-09T10:52:10;99191.03;;;10.56;50.21
14790;BME280;7486;51.010;10.366;2023-04-09T10:54:56;99199.09;;;10.62;48.87
14790;BME280;7486;51.010;10.366;2023-04-09T10:57:42;99193.16;;;10.75;48.47
14790;BME280;7486;51.010;10.366;2023-04-09T11:00:27;98957.00;;;9.40;47.73
14790;BME280;7486;51.010;10.366;2023-04-09T11:03:23;99203.41;;;10.26;48.71
14790;BME280;7486;51.010;10.366;2023-04-09T11:06:13;99184.66;;;10.28;48.77
14790;BME280;7486;51.010;10.366;2023-04-09T11:09:01;99192.88;;;10.55;47.33
14790;BME280;7486;51.010;10.366;2023-04-09T11:11:52;99189.84;;;10.58;50.35
14790;BME280;7486;51.010;10.366;2023-04-09T11:14:38;99186.97;;;10.45;50.00
14790;BME280;7486;51.010;10.366;2023-04-09T11:17:23;99112.53;;;9.96;47.13
14790;BME280;7486;51.010;10.366;2023-04-09T11:20:09;99176.84;;;10.34;48.21
14790;BME280;7486;51.010;10.366;2023-04-09T11:22:55;99182.34;;;10.47;47.65
14790;BME280;7486;51.010;10.366;2023-04-09T11:25:40;99176.72;;;10.65;48.21
14790;BME280;7486;51.010;10.366;2023-04-09T11:28:26;99178.34;;;10.95;47.13
14790;BME280;7486;51.010;10.366;2023-04-09T11:31:12;99183.41;;;11.11;46.08
14790;BME280;7486;51.010;10.366;2023-04-09T11:33:57;99175.75;;;11.02;46.02
14790;BME280;7486;51.010;10.366;2023-04-09T11:36:48;99165.78;;;11.04;46.21
14790;BME280;7486;51.010;10.366;2023-04-09T11:39:36;99169.13;;;10.77;47.26
14790;BME280;7486;51.010;10.366;2023-04-09T11:42:22;99110.38;;;10.29;49.10
14790;BME280;7486;51.010;10.366;2023-04-09T11:45:08;99171.00;;;10.97;48.19
14790;BME280;7486;51.010;10.366;2023-04-09T11:47:54;99165.22;;;11.23;48.54
14790;BME280;7486;51.010;10.366;2023-04-09T11:50:40;99166.69;;;10.96;46.87
14790;BME280;7486;51.010;10.366;2023-04-09T11:53:29;99167.72;;;11.31;45.01
14790;BME280;7486;51.010;10.366;2023-04-09T11:56:15;99165.47;;;11.49;46.23
14790;BME280;7486;51.010;10.366;2023-04-09T11:59:01;99165.41;;;11.43;46.23
14790;BME280;7486;51.010;10.366;2023-04-09T12:01:50;99166.25;;;11.43;47.51
14790;BME280;7486;51.010;10.366;2023-04-09T12:04:36;99167.28;;;11.63;48.61
14790;BME280;7486;51.010;10.366;2023-04-09T12:07:21;99163.03;;;11.69;44.73
14790;BME280;7486;51.010;10.366;2023-04-09T12:10:08;99161.97;;;11.85;47.62
14790;BME280;7486;51.010;10.366;2023-04-09T12:12:54;99168.44;;;12.31;45.50
14790;BME280;7486;51.010;10.366;2023-04-09T12:15:41;99110.81;;;11.97;44.29
14790;BME280;7486;51.010;10.366;2023-04-09T12:18:27;99153.44;;;12.17;43.36
14790;BME280;7486;51.010;10.366;2023-04-09T12:21:13;99148.69;;;11.85;42.27
14790;BME280;7486;51.010;10.366;2023-04-09T12:23:58;99154.25;;;11.68;44.74
14790;BME280;7486;51.010;10.366;2023-04-09T12:26:45;99153.19;;;10.91;45.32
14790;BME280;7486;51.010;10.366;2023-04-09T12:29:30;99147.41;;;11.38;46.35
14790;BME280;7486;51.010;10.366;2023-04-09T12:32:16;99139.38;;;11.95;46.43
14790;BME280;7486;51.010;10.366;2023-04-09T12:35:01;99138.75;;;12.21;42.76
14790;BME280;7486;51.010;10.366;2023-04-09T12:37:47;99135.41;;;12.12;42.00
14790;BME280;7486;51.010;10.366;2023-04-09T12:40:34;99139.97;;;12.18;42.04
14790;BME280;7486;51.010;10.366;2023-04-09T12:43:20;99138.09;;;11.85;44.77
14790;BME280;7486;51.010;10.366;2023-04-09T12:46:05;99133.78;;;11.62;42.79
14790;BME280;7486;51.010;10.366;2023-04-09T12:48:51;99137.72;;;11.66;43.30
14790;BME280;7486;51.010;10.366;2023-04-09T12:51:36;99137.34;;;11.34;48.29
14790;BME280;7486;51.010;10.366;2023-04-09T12:54:22;99103.06;;;11.32;46.49
14790;BME280;7486;51.010;10.366;2023-04-09T12:57:07;99133.91;;;11.76;46.41
14790;BME280;7486;51.010;10.366;2023-04-09T12:59:53;99125.69;;;11.92;45.24
14790;BME280;7486;51.010;10.366;2023-04-09T13:02:38;99130.22;;;11.98;47.28
14790;BME280;7486;51.010;10.366;2023-04-09T13:05:24;99121.28;;;12.40;45.81
14790;BME280;7486;51.010;10.366;2023-04-09T13:08:10;99122.47;;;12.31;45.63
14790;BME280;7486;51.010;10.366;2023-04-09T13:10:55;99113.59;;;12.51;43.05
14790;BME280;7486;51.010;10.366;2023-04-09T13:13:41;99109.09;;;12.17;43.12
14790;BME280;7486;51.010;10.366;2023-04-09T13:16:26;99112.41;;;12.26;43.11
14790;BME280;7486;51.010;10.366;2023-04-09T13:19:11;99111.41;;;11.99;42.85
14790;BME280;7486;51.010;10.366;2023-04-09T13:21:57;99100.75;;;11.93;43.58
14790;BME280;7486;51.010;10.366;2023-04-09T13:24:42;99106.97;;;11.79;43.15
14790;BME280;7486;51.010;10.366;2023-04-09T13:27:28;99102.22;;;11.67;45.26
14790;BME280;7486;51.010;10.366;2023-04-09T13:30:13;99100.22;;;11.55;44.19
14790;BME280;7486;51.010;10.366;2023-04-09T13:32:59;99101.16;;;11.47;43.48
14790;BME280;7486;51.010;10.366;2023-04-09T13:35:44;99101.53;;;11.44;44.87
14790;BME280;7486;51.010;10.366;2023-04-09T13:38:30;99101.91;;;11.41;45.89
14790;BME280;7486;51.010;10.366;2023-04-09T13:41:15;99094.34;;;11.38;45.16
14790;BME280;7486;51.010;10.366;2023-04-09T13:44:01;99092.34;;;11.89;42.93
14790;BME280;7486;51.010;10.366;2023-04-09T13:46:46;99079.38;;;12.01;41.31
14790;BME280;7486;51.010;10.366;2023-04-09T13:49:32;99071.59;;;11.71;42.77
14790;BME280;7486;51.010;10.366;2023-04-09T13:52:17;99080.00;;;11.75;45.01
14790;BME280;7486;51.010;10.366;2023-04-09T13:55:03;99070.97;;;11.69;45.28
14790;BME280;7486;51.010;10.366;2023-04-09T13:57:48;99072.13;;;11.60;44.90
14790;BME280;7486;51.010;10.366;2023-04-09T14:00:34;99069.94;;;11.64;43.98
14790;BME280;7486;51.010;10.366;2023-04-09T14:03:19;99061.50;;;11.39;44.25
14790;BME280;7486;51.010;10.366;2023-04-09T14:06:06;99062.25;;;11.54;44.08
14790;BME280;7486;51.010;10.366;2023-04-09T14:08:51;99069.94;;;11.64;42.74
14790;BME280;7486;51.010;10.366;2023-04-09T14:11:37;99067.38;;;11.35;45.36
14790;BME280;7486;51.010;10.366;2023-04-09T14:14:23;99031.56;;;11.45;43.88
14790;BME280;7486;51.010;10.366;2023-04-09T14:17:08;99059.09;;;11.65;44.82
14790;BME280;7486;51.010;10.366;2023-04-09T14:19:53;99044.38;;;11.63;44.67
14790;BME280;7486;51.010;10.366;2023-04-09T14:22:38;99061.63;;;12.01;44.42
14790;BME280;7486;51.010;10.366;2023-04-09T14:25:24;99074.13;;;12.14;44.18
14790;BME280;7486;51.010;10.366;2023-04-09T14:28:09;99054.19;;;12.24;45.40
14790;BME280;7486;51.010;10.366;2023-04-09T14:30:54;99051.66;;;12.10;44.21
14790;BME280;7486;51.010;10.366;2023-04-09T14:33:40;99047.25;;;12.30;44.70
14790;BME280;7486;51.010;10.366;2023-04-09T14:36:25;99055.25;;;12.02;44.59
14790;BME280;7486;51.010;10.366;2023-04-09T14:39:10;99057.66;;;11.91;43.71
14790;BME280;7486;51.010;10.366;2023-04-09T14:41:55;99058.47;;;12.19;46.51
14790;BME280;7486;51.010;10.366;2023-04-09T14:44:41;99040.13;;;12.37;41.97
14790;BME280;7486;51.010;10.366;2023-04-09T14:47:26;99051.00;;;12.42;42.98
14790;BME280;7486;51.010;10.366;2023-04-09T14:50:12;99050.56;;;12.32;42.48
14790;BME280;7486;51.010;10.366;2023-04-09T14:52:57;99052.25;;;12.05;43.97
14790;BME280;7486;51.010;10.366;2023-04-09T14:55:43;99046.19;;;12.18;43.95
14790;BME280;7486;51.010;10.366;2023-04-09T14:58:29;99043.88;;;12.49;41.88
14790;BME280;7486;51.010;10.366;2023-04-09T15:01:14;99043.16;;;12.28;43.34